weather.gov     
National Weather Service

Terminal Aerodrome Forecast
NWS Homepage
This page is being discontinued on March 12, 2014.
The same data is available at this site. Please update your bookmarks.
Thank you, and we apologize for the inconvenience.
Please send an email to SR-SRH.Webmaster@noaa.gov with any concerns.


Current Version
Previous Version:    01  02  03  04  05  06  07  08  09  10  11  12  13  14  15  16  17  18  19  20  21  22  23  24  25  26  27  28  29  30  
   31  32  33  34  35  36  
[Printable]
769
FTUS44 KCRP 310900 AAB
TAFALI
TAF AMD
KALI 310930Z 3110/0106 VRB03KT 2SM BR SCT012 SCT100
      TEMPO 3110/3111 1/2SM FG BKN012
     FM311100 03004KT 5SM BR SCT012 BKN100
      TEMPO 3111/3115 2SM -SHRA BR BKN012 OVC100
     FM311500 02012KT P6SM BKN050 OVC100
     FM312000 03013KT P6SM SCT070
     FM010100 02005KT P6SM SKC=


U.S. Dept. of Commerce
NOAA National Weather Service
1325 East West Highway
Silver Spring, MD 20910
E-mail: w-nws.webmaster@noaa.gov
Page last modified: May 16, 2007
NATIONAL WEATHER SERVICE: for Safety, for Work, for Fun - FOR LIFE